TUPJ/RAD METAR and TAF weather

Enter ICAO airport designator
Station Type Date Time Source
TUPJ METAR 2019/11/15 02:00 UTC NOAA

TUPJ 150200Z 05006KT 10SM SCT018 27/22 A2998 RMK Q1015 VIS30KM


Station Type Date Time Source
TUPJ Decoded METAR 2019/11/15 02:00 UTC NOAA

Beef Island, Tortola, British Virgin Islands (TUPJ) 18-27N 064-32W
Nov 14, 2019 - 09:00 PM EST / 2019.11.15 0200 UTC
Wind: from the NE (050 degrees) at 7 MPH (6 KT):0
Visibility: 10 mile(s):0
Sky conditions: partly cloudy
Temperature: 80 F (27 C)
Dew Point: 71 F (22 C)
Relative Humidity: 74%
Pressure (altimeter): 29.98 in. Hg (1015 hPa)
ob: TUPJ 150200Z 05006KT 10SM SCT018 27/22 A2998 RMK Q1015 VIS30KM
cycle: 2

Station Type Date Time Source
TUPJ TAF 2019/11/15 00:45 UTC NOAA

TAF
AMD TUPJ 150339Z 1500/1524 CNL

Example: see airport list